sensor_id;sensor_type;location;lat;lon;timestamp;pressure;altitude;pressure_sealevel;temperature;humidity
15884;BME280;8040;50.254;10.960;2023-08-06T00:00:51;97432.09;;;16.47;100.00
15884;BME280;8040;50.254;10.960;2023-08-06T00:06:50;97427.25;;;16.40;100.00
15884;BME280;8040;50.254;10.960;2023-08-06T00:09:15;97421.00;;;16.40;100.00
15884;BME280;8040;50.254;10.960;2023-08-06T00:11:40;97424.97;;;16.42;100.00
15884;BME280;8040;50.254;10.960;2023-08-06T00:14:06;97427.25;;;16.40;100.00
15884;BME280;8040;50.254;10.960;2023-08-06T00:16:31;97426.47;;;16.40;100.00
15884;BME280;8040;50.254;10.960;2023-08-06T00:18:57;97425.47;;;16.32;100.00
15884;BME280;8040;50.254;10.960;2023-08-06T00:21:22;97414.09;;;16.30;100.00
15884;BME280;8040;50.254;10.960;2023-08-06T00:23:47;97404.31;;;16.29;100.00
15884;BME280;8040;50.254;10.960;2023-08-06T00:26:12;97409.78;;;16.29;100.00
15884;BME280;8040;50.254;10.960;2023-08-06T00:28:38;97414.44;;;16.29;100.00
15884;BME280;8040;50.254;10.960;2023-08-06T00:31:03;97417.59;;;16.31;100.00
15884;BME280;8040;50.254;10.960;2023-08-06T00:33:31;97427.78;;;16.30;100.00
15884;BME280;8040;50.254;10.960;2023-08-06T00:35:56;97419.13;;;16.28;100.00
15884;BME280;8040;50.254;10.960;2023-08-06T00:38:22;97408.97;;;16.29;100.00
15884;BME280;8040;50.254;10.960;2023-08-06T00:40:47;97402.34;;;16.30;100.00
15884;BME280;8040;50.254;10.960;2023-08-06T00:43:12;97399.25;;;16.31;100.00
15884;BME280;8040;50.254;10.960;2023-08-06T00:45:38;97395.72;;;16.31;100.00
15884;BME280;8040;50.254;10.960;2023-08-06T00:48:04;97392.28;;;16.34;100.00
15884;BME280;8040;50.254;10.960;2023-08-06T00:50:30;97386.72;;;16.30;100.00
15884;BME280;8040;50.254;10.960;2023-08-06T00:52:55;97384.00;;;16.30;100.00
15884;BME280;8040;50.254;10.960;2023-08-06T01:02:07;97378.72;;;16.22;100.00
15884;BME280;8040;50.254;10.960;2023-08-06T01:12:38;97400.25;;;16.23;100.00
15884;BME280;8040;50.254;10.960;2023-08-06T01:15:12;97427.63;;;16.23;100.00
15884;BME280;8040;50.254;10.960;2023-08-06T01:17:40;97445.63;;;16.24;100.00
15884;BME280;8040;50.254;10.960;2023-08-06T01:20:05;97435.44;;;16.25;100.00
15884;BME280;8040;50.254;10.960;2023-08-06T01:25:34;97441.38;;;16.27;100.00
15884;BME280;8040;50.254;10.960;2023-08-06T01:28:23;97435.84;;;16.23;100.00
15884;BME280;8040;50.254;10.960;2023-08-06T01:30:46;97429.19;;;16.24;100.00
15884;BME280;8040;50.254;10.960;2023-08-06T01:33:14;97424.44;;;16.21;100.00
15884;BME280;8040;50.254;10.960;2023-08-06T01:35:41;97414.38;;;16.10;100.00
15884;BME280;8040;50.254;10.960;2023-08-06T01:38:07;97416.16;;;16.02;100.00
15884;BME280;8040;50.254;10.960;2023-08-06T01:40:32;97405.75;;;15.93;100.00
15884;BME280;8040;50.254;10.960;2023-08-06T01:42:59;97397.28;;;15.82;100.00
15884;BME280;8040;50.254;10.960;2023-08-06T01:45:27;97390.22;;;15.81;100.00
15884;BME280;8040;50.254;10.960;2023-08-06T01:47:53;97391.91;;;15.86;100.00
15884;BME280;8040;50.254;10.960;2023-08-06T01:50:18;97389.34;;;15.93;100.00
15884;BME280;8040;50.254;10.960;2023-08-06T01:52:43;97393.31;;;15.95;100.00
15884;BME280;8040;50.254;10.960;2023-08-06T01:55:09;97385.19;;;15.98;100.00
15884;BME280;8040;50.254;10.960;2023-08-06T01:57:34;97381.47;;;16.07;100.00
15884;BME280;8040;50.254;10.960;2023-08-06T01:59:59;97384.22;;;16.07;100.00
15884;BME280;8040;50.254;10.960;2023-08-06T02:02:25;97383.06;;;16.08;100.00
15884;BME280;8040;50.254;10.960;2023-08-06T02:04:50;97379.59;;;16.10;100.00
15884;BME280;8040;50.254;10.960;2023-08-06T02:07:21;97374.59;;;16.13;100.00
15884;BME280;8040;50.254;10.960;2023-08-06T02:09:46;97371.84;;;16.13;100.00
15884;BME280;8040;50.254;10.960;2023-08-06T02:12:11;97374.22;;;16.14;100.00
15884;BME280;8040;50.254;10.960;2023-08-06T02:14:37;97375.81;;;16.15;100.00
15884;BME280;8040;50.254;10.960;2023-08-06T02:17:02;97365.66;;;16.15;100.00
15884;BME280;8040;50.254;10.960;2023-08-06T02:19:27;97357.72;;;16.10;100.00
15884;BME280;8040;50.254;10.960;2023-08-06T02:21:52;97356.13;;;16.09;100.00
15884;BME280;8040;50.254;10.960;2023-08-06T02:24:18;97359.22;;;16.08;100.00
15884;BME280;8040;50.254;10.960;2023-08-06T02:26:43;97361.19;;;16.08;100.00
15884;BME280;8040;50.254;10.960;2023-08-06T02:32:31;97358.16;;;16.13;100.00
15884;BME280;8040;50.254;10.960;2023-08-06T02:34:58;97360.19;;;16.15;100.00
15884;BME280;8040;50.254;10.960;2023-08-06T02:37:23;97359.84;;;16.17;100.00
15884;BME280;8040;50.254;10.960;2023-08-06T02:39:48;97348.53;;;16.18;100.00
15884;BME280;8040;50.254;10.960;2023-08-06T02:42:14;97346.56;;;16.19;100.00
15884;BME280;8040;50.254;10.960;2023-08-06T02:44:39;97339.88;;;16.16;100.00
15884;BME280;8040;50.254;10.960;2023-08-06T02:47:04;97336.78;;;16.18;100.00
15884;BME280;8040;50.254;10.960;2023-08-06T02:49:30;97337.59;;;16.18;100.00
15884;BME280;8040;50.254;10.960;2023-08-06T02:51:55;97329.72;;;16.17;100.00
15884;BME280;8040;50.254;10.960;2023-08-06T02:54:22;97327.34;;;16.15;100.00
15884;BME280;8040;50.254;10.960;2023-08-06T02:56:50;97320.72;;;16.16;100.00
15884;BME280;8040;50.254;10.960;2023-08-06T02:59:16;97322.69;;;16.16;100.00
15884;BME280;8040;50.254;10.960;2023-08-06T03:01:41;97318.78;;;16.17;100.00
15884;BME280;8040;50.254;10.960;2023-08-06T03:04:07;97322.75;;;16.19;100.00
15884;BME280;8040;50.254;10.960;2023-08-06T03:06:32;97319.22;;;16.19;100.00
15884;BME280;8040;50.254;10.960;2023-08-06T03:08:57;97313.38;;;16.20;100.00
15884;BME280;8040;50.254;10.960;2023-08-06T03:11:23;97311.81;;;16.19;100.00
15884;BME280;8040;50.254;10.960;2023-08-06T03:13:48;97303.59;;;16.19;100.00
15884;BME280;8040;50.254;10.960;2023-08-06T03:22:58;97307.78;;;16.13;100.00
15884;BME280;8040;50.254;10.960;2023-08-06T03:25:26;97302.28;;;16.13;100.00
15884;BME280;8040;50.254;10.960;2023-08-06T03:27:51;97300.34;;;16.14;100.00
15884;BME280;8040;50.254;10.960;2023-08-06T03:30:16;97297.59;;;16.14;100.00
15884;BME280;8040;50.254;10.960;2023-08-06T03:32:42;97291.34;;;16.13;100.00
15884;BME280;8040;50.254;10.960;2023-08-06T03:35:07;97288.97;;;16.12;100.00
15884;BME280;8040;50.254;10.960;2023-08-06T03:37:32;97295.25;;;16.13;100.00
15884;BME280;8040;50.254;10.960;2023-08-06T03:39:57;97289.78;;;16.13;100.00
15884;BME280;8040;50.254;10.960;2023-08-06T03:42:23;97292.06;;;16.10;100.00
15884;BME280;8040;50.254;10.960;2023-08-06T03:47:23;97275.56;;;16.07;100.00
15884;BME280;8040;50.254;10.960;2023-08-06T03:49:48;97277.53;;;16.07;100.00
15884;BME280;8040;50.254;10.960;2023-08-06T03:52:14;97273.63;;;16.08;100.00
15884;BME280;8040;50.254;10.960;2023-08-06T03:54:40;97264.19;;;16.05;100.00
15884;BME280;8040;50.254;10.960;2023-08-06T03:57:05;97259.06;;;16.03;100.00
15884;BME280;8040;50.254;10.960;2023-08-06T03:59:31;97259.06;;;16.03;100.00
15884;BME280;8040;50.254;10.960;2023-08-06T04:01:56;97255.91;;;16.02;100.00
15884;BME280;8040;50.254;10.960;2023-08-06T04:04:21;97253.97;;;16.02;100.00
15884;BME280;8040;50.254;10.960;2023-08-06T04:10:00;97271.59;;;16.04;100.00
15884;BME280;8040;50.254;10.960;2023-08-06T04:12:26;97267.75;;;16.06;100.00
15884;BME280;8040;50.254;10.960;2023-08-06T04:14:51;97266.94;;;16.05;100.00
15884;BME280;8040;50.254;10.960;2023-08-06T04:17:17;97263.84;;;16.07;100.00
15884;BME280;8040;50.254;10.960;2023-08-06T04:19:45;97265.78;;;16.06;100.00
15884;BME280;8040;50.254;10.960;2023-08-06T04:22:11;97263.41;;;16.04;100.00
15884;BME280;8040;50.254;10.960;2023-08-06T04:24:36;97264.19;;;16.05;100.00
15884;BME280;8040;50.254;10.960;2023-08-06T04:27:01;97256.78;;;16.06;100.00
15884;BME280;8040;50.254;10.960;2023-08-06T04:29:27;97267.75;;;16.06;100.00
15884;BME280;8040;50.254;10.960;2023-08-06T04:31:52;97263.84;;;16.07;100.00
15884;BME280;8040;50.254;10.960;2023-08-06T04:34:17;97255.25;;;16.08;100.00
15884;BME280;8040;50.254;10.960;2023-08-06T04:36:42;97260.72;;;16.08;100.00
15884;BME280;8040;50.254;10.960;2023-08-06T04:39:08;97257.91;;;16.04;100.00
15884;BME280;8040;50.254;10.960;2023-08-06T04:41:33;97265.34;;;16.04;100.00
15884;BME280;8040;50.254;10.960;2023-08-06T04:43:58;97267.28;;;16.03;100.00
15884;BME280;8040;50.254;10.960;2023-08-06T04:46:24;97282.53;;;16.04;100.00
15884;BME280;8040;50.254;10.960;2023-08-06T04:48:49;97267.75;;;16.06;100.00
15884;BME280;8040;50.254;10.960;2023-08-06T04:53:58;97286.50;;;16.07;100.00
15884;BME280;8040;50.254;10.960;2023-08-06T04:56:24;97285.34;;;16.08;100.00
15884;BME280;8040;50.254;10.960;2023-08-06T04:58:49;97282.63;;;16.08;100.00
15884;BME280;8040;50.254;10.960;2023-08-06T05:01:15;97274.06;;;16.09;100.00
15884;BME280;8040;50.254;10.960;2023-08-06T05:03:40;97274.13;;;16.13;100.00
15884;BME280;8040;50.254;10.960;2023-08-06T05:06:05;97269.88;;;16.15;100.00
15884;BME280;8040;50.254;10.960;2023-08-06T05:08:31;97266.00;;;16.16;100.00
15884;BME280;8040;50.254;10.960;2023-08-06T05:10:56;97260.53;;;16.16;100.00
15884;BME280;8040;50.254;10.960;2023-08-06T05:13:22;97265.66;;;16.18;100.00
15884;BME280;8040;50.254;10.960;2023-08-06T05:15:48;97253.19;;;16.20;100.00
15884;BME280;8040;50.254;10.960;2023-08-06T05:18:13;97254.78;;;16.21;100.00
15884;BME280;8040;50.254;10.960;2023-08-06T05:20:41;97253.25;;;16.24;100.00
15884;BME280;8040;50.254;10.960;2023-08-06T05:23:06;97253.63;;;16.22;100.00
15884;BME280;8040;50.254;10.960;2023-08-06T05:25:34;97267.38;;;16.26;100.00
15884;BME280;8040;50.254;10.960;2023-08-06T05:27:59;97270.50;;;16.24;100.00
15884;BME280;8040;50.254;10.960;2023-08-06T05:30:26;97261.13;;;16.25;100.00
15884;BME280;8040;50.254;10.960;2023-08-06T05:32:51;97262.41;;;16.31;100.00
15884;BME280;8040;50.254;10.960;2023-08-06T05:35:22;97257.78;;;16.35;100.00
15884;BME280;8040;50.254;10.960;2023-08-06T05:37:47;97254.38;;;16.38;100.00
15884;BME280;8040;50.254;10.960;2023-08-06T05:40:13;97258.25;;;16.37;100.00
15884;BME280;8040;50.254;10.960;2023-08-06T05:42:39;97255.97;;;16.39;100.00
15884;BME280;8040;50.254;10.960;2023-08-06T05:45:04;97260.66;;;16.39;100.00
15884;BME280;8040;50.254;10.960;2023-08-06T05:47:29;97256.75;;;16.40;100.00
15884;BME280;8040;50.254;10.960;2023-08-06T05:49:55;97247.31;;;16.37;100.00
15884;BME280;8040;50.254;10.960;2023-08-06T05:52:20;97255.88;;;16.36;100.00
15884;BME280;8040;50.254;10.960;2023-08-06T05:54:45;97251.97;;;16.37;100.00
15884;BME280;8040;50.254;10.960;2023-08-06T05:57:12;97253.56;;;16.38;100.00
15884;BME280;8040;50.254;10.960;2023-08-06T05:59:37;97254.38;;;16.38;100.00
15884;BME280;8040;50.254;10.960;2023-08-06T06:02:03;97258.34;;;16.41;100.00
15884;BME280;8040;50.254;10.960;2023-08-06T06:04:28;97254.94;;;16.47;100.00
15884;BME280;8040;50.254;10.960;2023-08-06T06:06:53;97253.94;;;16.55;100.00
15884;BME280;8040;50.254;10.960;2023-08-06T06:09:19;97248.31;;;16.67;100.00
15884;BME280;8040;50.254;10.960;2023-08-06T06:11:44;97249.44;;;16.85;100.00
15884;BME280;8040;50.254;10.960;2023-08-06T06:14:09;97242.91;;;16.93;100.00
15884;BME280;8040;50.254;10.960;2023-08-06T06:16:35;97244.50;;;16.94;100.00
15884;BME280;8040;50.254;10.960;2023-08-06T06:22:25;97240.00;;;17.05;100.00
15884;BME280;8040;50.254;10.960;2023-08-06T06:24:50;97238.44;;;17.04;100.00
15884;BME280;8040;50.254;10.960;2023-08-06T06:27:16;97235.75;;;17.08;100.00
15884;BME280;8040;50.254;10.960;2023-08-06T06:29:41;97237.75;;;17.11;100.00
15884;BME280;8040;50.254;10.960;2023-08-06T06:32:06;97239.69;;;17.10;100.00
15884;BME280;8040;50.254;10.960;2023-08-06T06:34:32;97236.66;;;17.15;100.00
15884;BME280;8040;50.254;10.960;2023-08-06T06:36:57;97233.22;;;17.22;100.00
15884;BME280;8040;50.254;10.960;2023-08-06T06:39:22;97228.38;;;17.34;100.00
15884;BME280;8040;50.254;10.960;2023-08-06T06:41:48;97226.63;;;17.45;100.00
15884;BME280;8040;50.254;10.960;2023-08-06T06:44:14;97216.56;;;17.56;100.00
15884;BME280;8040;50.254;10.960;2023-08-06T06:46:40;97217.88;;;17.66;100.00
15884;BME280;8040;50.254;10.960;2023-08-06T06:49:05;97223.88;;;17.71;100.00
15884;BME280;8040;50.254;10.960;2023-08-06T06:51:31;97228.59;;;17.74;100.00
15884;BME280;8040;50.254;10.960;2023-08-06T06:53:57;97214.53;;;17.76;100.00
15884;BME280;8040;50.254;10.960;2023-08-06T06:56:22;97220.81;;;17.76;100.00
15884;BME280;8040;50.254;10.960;2023-08-06T06:58:47;97226.28;;;17.76;100.00
15884;BME280;8040;50.254;10.960;2023-08-06T07:01:13;97228.66;;;17.78;100.00
15884;BME280;8040;50.254;10.960;2023-08-06T07:03:38;97226.75;;;17.82;100.00
15884;BME280;8040;50.254;10.960;2023-08-06T07:06:07;97213.72;;;17.75;100.00
15884;BME280;8040;50.254;10.960;2023-08-06T07:08:32;97224.91;;;17.89;100.00
15884;BME280;8040;50.254;10.960;2023-08-06T07:11:04;97230.50;;;17.96;99.07
15884;BME280;8040;50.254;10.960;2023-08-06T07:13:33;97222.34;;;18.03;98.60
15884;BME280;8040;50.254;10.960;2023-08-06T07:15:59;97219.69;;;18.10;97.39
15884;BME280;8040;50.254;10.960;2023-08-06T07:18:24;97224.53;;;18.20;97.65
15884;BME280;8040;50.254;10.960;2023-08-06T07:20:50;97214.44;;;18.28;96.57
15884;BME280;8040;50.254;10.960;2023-08-06T07:23:16;97222.34;;;18.33;96.59
15884;BME280;8040;50.254;10.960;2023-08-06T07:25:41;97222.28;;;18.29;95.15
15884;BME280;8040;50.254;10.960;2023-08-06T07:28:09;97221.47;;;18.25;95.05
15884;BME280;8040;50.254;10.960;2023-08-06T07:30:38;97212.88;;;18.30;93.44
15884;BME280;8040;50.254;10.960;2023-08-06T07:33:03;97219.41;;;18.48;91.40
15884;BME280;8040;50.254;10.960;2023-08-06T07:35:28;97217.63;;;18.66;90.45
15884;BME280;8040;50.254;10.960;2023-08-06T07:37:54;97223.72;;;18.82;89.75
15884;BME280;8040;50.254;10.960;2023-08-06T07:40:19;97213.47;;;18.79;87.25
15884;BME280;8040;50.254;10.960;2023-08-06T07:42:44;97213.56;;;18.86;89.14
15884;BME280;8040;50.254;10.960;2023-08-06T07:45:10;97212.81;;;18.93;86.14
15884;BME280;8040;50.254;10.960;2023-08-06T07:47:35;97208.91;;;18.97;85.48
15884;BME280;8040;50.254;10.960;2023-08-06T07:50:00;97216.75;;;18.95;83.83
15884;BME280;8040;50.254;10.960;2023-08-06T07:52:26;97202.25;;;18.95;83.78
15884;BME280;8040;50.254;10.960;2023-08-06T07:54:51;97207.69;;;18.91;84.19
15884;BME280;8040;50.254;10.960;2023-08-06T07:57:16;97201.75;;;18.86;84.15
15884;BME280;8040;50.254;10.960;2023-08-06T07:59:42;97194.66;;;18.81;83.18
15884;BME280;8040;50.254;10.960;2023-08-06T08:02:07;97190.38;;;18.84;83.79
15884;BME280;8040;50.254;10.960;2023-08-06T08:04:32;97186.44;;;18.85;82.34
15884;BME280;8040;50.254;10.960;2023-08-06T08:06:58;97188.44;;;18.91;82.03
15884;BME280;8040;50.254;10.960;2023-08-06T08:09:23;97188.25;;;19.10;80.83
15884;BME280;8040;50.254;10.960;2023-08-06T08:11:48;97181.38;;;19.30;81.89
15884;BME280;8040;50.254;10.960;2023-08-06T08:14:15;97167.75;;;19.51;81.57
15884;BME280;8040;50.254;10.960;2023-08-06T08:16:40;97170.66;;;19.72;81.07
15884;BME280;8040;50.254;10.960;2023-08-06T08:19:06;97169.50;;;19.80;77.49
15884;BME280;8040;50.254;10.960;2023-08-06T08:21:31;97162.81;;;19.81;75.24
15884;BME280;8040;50.254;10.960;2023-08-06T08:23:56;97155.88;;;20.01;74.15
15884;BME280;8040;50.254;10.960;2023-08-06T08:26:21;97157.91;;;20.15;71.39
15884;BME280;8040;50.254;10.960;2023-08-06T08:28:47;97152.81;;;20.20;69.35
15884;BME280;8040;50.254;10.960;2023-08-06T08:31:12;97159.53;;;20.30;68.50
15884;BME280;8040;50.254;10.960;2023-08-06T08:36:59;97155.19;;;20.25;66.63
15884;BME280;8040;50.254;10.960;2023-08-06T08:39:25;97157.16;;;20.25;65.89
15884;BME280;8040;50.254;10.960;2023-08-06T08:41:50;97151.28;;;20.26;65.64
15884;BME280;8040;50.254;10.960;2023-08-06T08:44:15;97158.38;;;20.38;65.11
15884;BME280;8040;50.254;10.960;2023-08-06T08:46:41;97159.56;;;20.40;63.74
15884;BME280;8040;50.254;10.960;2023-08-06T08:49:08;97152.50;;;20.46;63.87
15884;BME280;8040;50.254;10.960;2023-08-06T08:51:33;97155.66;;;20.48;63.88
15884;BME280;8040;50.254;10.960;2023-08-06T08:54:00;97154.88;;;20.48;63.32
15884;BME280;8040;50.254;10.960;2023-08-06T08:56:27;97160.75;;;20.39;63.94
15884;BME280;8040;50.254;10.960;2023-08-06T08:58:52;97155.94;;;20.15;63.86
15884;BME280;8040;50.254;10.960;2023-08-06T09:01:20;97153.56;;;20.10;64.98
15884;BME280;8040;50.254;10.960;2023-08-06T09:03:46;97157.13;;;20.14;65.83
15884;BME280;8040;50.254;10.960;2023-08-06T09:06:11;97154.38;;;20.18;66.67
15884;BME280;8040;50.254;10.960;2023-08-06T09:08:39;97159.13;;;20.24;66.87
15884;BME280;8040;50.254;10.960;2023-08-06T09:11:06;97165.03;;;20.26;65.56
15884;BME280;8040;50.254;10.960;2023-08-06T09:13:35;97161.09;;;20.20;65.76
15884;BME280;8040;50.254;10.960;2023-08-06T09:16:01;97158.72;;;20.19;66.22
15884;BME280;8040;50.254;10.960;2023-08-06T09:18:27;97169.72;;;20.15;66.03
15884;BME280;8040;50.254;10.960;2023-08-06T09:20:54;97168.13;;;20.07;65.60
15884;BME280;8040;50.254;10.960;2023-08-06T09:23:19;97177.41;;;19.89;65.07
15884;BME280;8040;50.254;10.960;2023-08-06T09:25:45;97176.25;;;19.90;64.68
15884;BME280;8040;50.254;10.960;2023-08-06T09:28:11;97172.72;;;19.89;65.31
15884;BME280;8040;50.254;10.960;2023-08-06T09:30:36;97159.75;;;19.93;65.29
15884;BME280;8040;50.254;10.960;2023-08-06T09:33:02;97165.25;;;19.97;65.88
15884;BME280;8040;50.254;10.960;2023-08-06T09:35:28;97169.59;;;19.98;65.04
15884;BME280;8040;50.254;10.960;2023-08-06T09:37:54;97157.84;;;20.04;66.15
15884;BME280;8040;50.254;10.960;2023-08-06T09:40:27;97161.88;;;20.24;66.59
15884;BME280;8040;50.254;10.960;2023-08-06T09:42:52;97160.75;;;20.39;65.80
15884;BME280;8040;50.254;10.960;2023-08-06T09:45:18;97156.84;;;20.54;64.67
15884;BME280;8040;50.254;10.960;2023-08-06T09:47:43;97160.03;;;20.63;63.71
15884;BME280;8040;50.254;10.960;2023-08-06T09:50:18;97166.31;;;20.71;62.89
15884;BME280;8040;50.254;10.960;2023-08-06T09:52:44;97167.50;;;20.70;63.36
15884;BME280;8040;50.254;10.960;2023-08-06T09:55:13;97170.63;;;20.54;63.58
15884;BME280;8040;50.254;10.960;2023-08-06T09:57:41;97175.28;;;20.29;65.27
15884;BME280;8040;50.254;10.960;2023-08-06T10:00:08;97161.03;;;20.10;68.37
15884;BME280;8040;50.254;10.960;2023-08-06T10:02:39;97157.78;;;19.94;69.66
15884;BME280;8040;50.254;10.960;2023-08-06T10:05:05;97157.69;;;19.76;72.36
15884;BME280;8040;50.254;10.960;2023-08-06T10:07:31;97158.44;;;19.70;72.89
15884;BME280;8040;50.254;10.960;2023-08-06T10:09:56;97156.47;;;19.70;75.12
15884;BME280;8040;50.254;10.960;2023-08-06T10:12:22;97146.72;;;19.80;73.79
15884;BME280;8040;50.254;10.960;2023-08-06T10:14:50;97128.69;;;19.93;73.62
15884;BME280;8040;50.254;10.960;2023-08-06T10:17:16;97131.84;;;19.95;71.29
15884;BME280;8040;50.254;10.960;2023-08-06T10:19:42;97132.72;;;20.06;70.22
15884;BME280;8040;50.254;10.960;2023-08-06T10:22:08;97128.44;;;20.19;67.53
15884;BME280;8040;50.254;10.960;2023-08-06T10:27:34;97118.66;;;20.46;65.34
15884;BME280;8040;50.254;10.960;2023-08-06T10:32:50;97112.38;;;20.70;64.90
15884;BME280;8040;50.254;10.960;2023-08-06T10:35:36;97108.91;;;20.90;65.42
15884;BME280;8040;50.254;10.960;2023-08-06T10:38:20;97112.03;;;20.89;64.79
15884;BME280;8040;50.254;10.960;2023-08-06T10:43:29;97121.00;;;20.37;64.17
15884;BME280;8040;50.254;10.960;2023-08-06T10:45:56;97120.91;;;20.12;65.42
15884;BME280;8040;50.254;10.960;2023-08-06T10:48:33;97111.38;;;19.92;66.63
15884;BME280;8040;50.254;10.960;2023-08-06T10:50:59;97109.00;;;19.94;70.31
15884;BME280;8040;50.254;10.960;2023-08-06T10:53:24;97102.75;;;20.01;71.89
15884;BME280;8040;50.254;10.960;2023-08-06T10:55:50;97098.13;;;20.15;72.25
15884;BME280;8040;50.254;10.960;2023-08-06T10:58:15;97091.88;;;20.29;70.59
15884;BME280;8040;50.254;10.960;2023-08-06T11:00:41;97091.91;;;20.43;70.26
15884;BME280;8040;50.254;10.960;2023-08-06T11:03:07;97088.78;;;20.55;66.49
15884;BME280;8040;50.254;10.960;2023-08-06T11:05:33;97092.72;;;20.61;66.31
15884;BME280;8040;50.254;10.960;2023-08-06T11:07:58;97093.47;;;20.47;67.59
15884;BME280;8040;50.254;10.960;2023-08-06T11:10:24;97094.63;;;20.29;69.50
15884;BME280;8040;50.254;10.960;2023-08-06T11:12:49;97091.03;;;20.14;68.89
15884;BME280;8040;50.254;10.960;2023-08-06T11:15:14;97084.75;;;20.24;70.59
15884;BME280;8040;50.254;10.960;2023-08-06T11:17:40;97090.31;;;20.38;70.43
15884;BME280;8040;50.254;10.960;2023-08-06T11:20:06;97086.41;;;20.53;68.48
15884;BME280;8040;50.254;10.960;2023-08-06T11:22:32;97072.25;;;20.69;68.68
15884;BME280;8040;50.254;10.960;2023-08-06T11:24:57;97052.94;;;20.55;66.00
15884;BME280;8040;50.254;10.960;2023-08-06T11:27:23;97073.44;;;20.64;64.71
15884;BME280;8040;50.254;10.960;2023-08-06T11:29:51;97068.69;;;20.61;63.67
15884;BME280;8040;50.254;10.960;2023-08-06T11:32:16;97065.16;;;20.61;64.08
15884;BME280;8040;50.254;10.960;2023-08-06T11:34:41;97051.38;;;20.47;64.64
15884;BME280;8040;50.254;10.960;2023-08-06T11:37:08;97067.09;;;20.46;65.65
15884;BME280;8040;50.254;10.960;2023-08-06T11:39:37;97062.75;;;20.31;64.81
15884;BME280;8040;50.254;10.960;2023-08-06T11:42:03;97060.78;;;20.35;65.43
15884;BME280;8040;50.254;10.960;2023-08-06T11:44:32;97056.47;;;20.52;64.32
15884;BME280;8040;50.254;10.960;2023-08-06T11:46:58;97062.00;;;20.66;61.96
15884;BME280;8040;50.254;10.960;2023-08-06T11:52:24;97057.69;;;20.82;60.53
15884;BME280;8040;50.254;10.960;2023-08-06T11:55:06;97059.63;;;20.82;60.35
15884;BME280;8040;50.254;10.960;2023-08-06T11:57:36;97068.72;;;20.75;60.87
15884;BME280;8040;50.254;10.960;2023-08-06T12:00:02;97069.09;;;20.60;59.47
15884;BME280;8040;50.254;10.960;2023-08-06T12:02:30;97061.97;;;20.48;60.08
15884;BME280;8040;50.254;10.960;2023-08-06T12:04:59;97067.50;;;20.45;62.39
15884;BME280;8040;50.254;10.960;2023-08-06T12:07:26;97061.97;;;20.41;65.25
15884;BME280;8040;50.254;10.960;2023-08-06T12:09:51;97057.66;;;20.40;65.60
15884;BME280;8040;50.254;10.960;2023-08-06T12:12:17;97052.53;;;20.46;65.96
15884;BME280;8040;50.254;10.960;2023-08-06T12:14:42;97057.28;;;20.59;65.52
15884;BME280;8040;50.254;10.960;2023-08-06T12:17:07;97056.09;;;20.81;65.69
15884;BME280;8040;50.254;10.960;2023-08-06T12:19:32;97052.56;;;21.05;64.25
15884;BME280;8040;50.254;10.960;2023-08-06T12:21:58;97047.41;;;21.18;62.66
15884;BME280;8040;50.254;10.960;2023-08-06T12:24:23;97048.16;;;21.39;60.94
15884;BME280;8040;50.254;10.960;2023-08-06T12:26:48;97045.34;;;21.60;60.60
15884;BME280;8040;50.254;10.960;2023-08-06T12:29:14;97051.63;;;21.78;58.48
15884;BME280;8040;50.254;10.960;2023-08-06T12:31:39;97051.19;;;21.83;57.32
15884;BME280;8040;50.254;10.960;2023-08-06T12:34:05;97055.91;;;21.90;56.74
15884;BME280;8040;50.254;10.960;2023-08-06T12:36:31;97060.59;;;21.93;55.83
15884;BME280;8040;50.254;10.960;2023-08-06T12:38:56;97055.91;;;21.86;55.66
15884;BME280;8040;50.254;10.960;2023-08-06T12:41:21;97067.41;;;21.64;57.75
15884;BME280;8040;50.254;10.960;2023-08-06T12:43:47;97068.31;;;21.29;58.98
15884;BME280;8040;50.254;10.960;2023-08-06T12:46:13;97065.56;;;21.01;61.07
15884;BME280;8040;50.254;10.960;2023-08-06T12:48:40;97073.03;;;20.66;63.91
15884;BME280;8040;50.254;10.960;2023-08-06T12:51:06;97069.06;;;20.32;67.25
15884;BME280;8040;50.254;10.960;2023-08-06T12:53:31;97061.94;;;20.13;69.77
15884;BME280;8040;50.254;10.960;2023-08-06T12:56:02;97060.66;;;19.93;70.95
15884;BME280;8040;50.254;10.960;2023-08-06T12:58:27;97058.63;;;19.76;71.66
15884;BME280;8040;50.254;10.960;2023-08-06T13:00:52;97055.84;;;19.69;72.08
15884;BME280;8040;50.254;10.960;2023-08-06T13:03:19;97051.53;;;19.68;74.23
15884;BME280;8040;50.254;10.960;2023-08-06T13:05:47;97049.16;;;19.70;73.94
15884;BME280;8040;50.254;10.960;2023-08-06T13:08:12;97057.47;;;19.77;74.19
15884;BME280;8040;50.254;10.960;2023-08-06T13:10:37;97046.13;;;19.89;74.69
15884;BME280;8040;50.254;10.960;2023-08-06T13:13:05;97039.84;;;20.03;77.03
15884;BME280;8040;50.254;10.960;2023-08-06T13:15:30;97034.38;;;20.10;75.07
15884;BME280;8040;50.254;10.960;2023-08-06T13:20:40;97053.97;;;19.91;73.55
15884;BME280;8040;50.254;10.960;2023-08-06T13:23:05;97056.31;;;19.82;75.64
15884;BME280;8040;50.254;10.960;2023-08-06T13:25:31;97055.44;;;19.64;76.13
15884;BME280;8040;50.254;10.960;2023-08-06T13:28:01;97043.56;;;19.42;76.79
15884;BME280;8040;50.254;10.960;2023-08-06T13:30:27;97045.09;;;19.33;77.20
15884;BME280;8040;50.254;10.960;2023-08-06T13:32:52;97040.34;;;19.33;80.12
15884;BME280;8040;50.254;10.960;2023-08-06T13:35:17;97034.91;;;19.40;81.12
15884;BME280;8040;50.254;10.960;2023-08-06T13:37:43;97033.38;;;19.46;81.24
15884;BME280;8040;50.254;10.960;2023-08-06T13:40:08;97031.03;;;19.55;82.53
15884;BME280;8040;50.254;10.960;2023-08-06T13:42:33;97031.06;;;19.62;82.35
15884;BME280;8040;50.254;10.960;2023-08-06T13:44:59;97026.41;;;19.73;83.25
15884;BME280;8040;50.254;10.960;2023-08-06T13:47:28;97018.94;;;19.77;81.37
15884;BME280;8040;50.254;10.960;2023-08-06T13:49:53;97020.88;;;19.70;81.13